Time;durP1;ratioP1;P1;durP2;ratioP2;P2;SDS_P1;SDS_P2;PMS_P1;PMS_P2;Temp;Humidity;BMP_temperature;BMP_pressure;BME280_temperature;BME280_humidity;BME280_pressure;Samples;Min_cycle;Max_cycle;Signal;HPM_P1;HPM_P2
2022/11/19 00:01:25;;;;;;;7.07;1.77;;;8.60;99.90;;;;;;4987492;28;20061;-70
2022/11/19 00:03:51;;;;;;;9.23;2.15;;;8.60;99.90;;;;;;4993069;28;20026;-71
2022/11/19 00:06:24;;;;;;;2.95;2.05;;;8.50;99.90;;;;;;4979096;28;20039;-71
2022/11/19 00:08:50;;;;;;;3.35;1.73;;;8.50;99.90;;;;;;4990943;28;20030;-71
2022/11/19 00:14:12;;;;;;;8.25;2.05;;;8.50;99.90;;;;;;4973509;28;20093;-71
2022/11/19 00:16:40;;;;;;;3.53;1.88;;;8.50;99.90;;;;;;4986588;28;20052;-71
2022/11/19 00:19:06;;;;;;;7.47;1.90;;;8.50;99.90;;;;;;4973789;28;20030;-71
2022/11/19 00:21:32;;;;;;;7.20;1.83;;;8.40;99.90;;;;;;4960253;28;20065;-71
2022/11/19 00:23:58;;;;;;;5.95;2.30;;;8.50;99.90;;;;;;4957220;28;20055;-71
2022/11/19 00:26:24;;;;;;;6.80;2.40;;;8.40;99.90;;;;;;4960545;28;20102;-71
2022/11/19 00:28:50;;;;;;;2.95;1.30;;;8.40;99.90;;;;;;4989919;28;20490;-71
2022/11/19 00:31:17;;;;;;;1.75;1.42;;;8.40;99.90;;;;;;4993539;28;20044;-71
2022/11/19 00:33:44;;;;;;;8.57;1.73;;;8.40;99.90;;;;;;4988611;28;20046;-71
2022/11/19 00:36:13;;;;;;;1.80;1.25;;;8.40;99.90;;;;;;4993187;28;20026;-71
2022/11/19 00:38:40;;;;;;;7.28;2.50;;;8.40;99.90;;;;;;4989071;28;20042;-71
2022/11/19 00:41:05;;;;;;;4.63;2.13;;;8.30;99.90;;;;;;4973599;28;20394;-71
2022/11/19 00:43:46;;;;;;;2.50;1.75;;;8.40;99.90;;;;;;4969617;28;20030;-71
2022/11/19 00:46:23;;;;;;;4.35;2.35;;;8.40;99.90;;;;;;4973855;28;20057;-71
2022/11/19 00:48:52;;;;;;;4.28;1.63;;;8.40;99.90;;;;;;4987619;28;20053;-71
2022/11/19 00:51:20;;;;;;;1.70;1.25;;;8.40;99.90;;;;;;4968831;28;20503;-71
2022/11/19 00:53:46;;;;;;;4.97;2.35;;;8.40;99.90;;;;;;4987686;28;20046;-72
2022/11/19 00:56:16;;;;;;;15.02;2.58;;;8.40;99.90;;;;;;4992990;28;20042;-71
2022/11/19 00:58:43;;;;;;;2.58;1.88;;;8.40;99.90;;;;;;4989083;28;20104;-71
2022/11/19 01:01:10;;;;;;;3.67;1.17;;;8.40;99.90;;;;;;4976787;28;20085;-71
2022/11/19 01:03:38;;;;;;;4.28;2.38;;;8.40;99.90;;;;;;4987473;28;20121;-71
2022/11/19 01:06:06;;;;;;;4.85;1.90;;;8.40;99.90;;;;;;4991070;28;20696;-71
2022/11/19 01:08:31;;;;;;;3.17;1.77;;;8.40;99.90;;;;;;4986345;28;20042;-71
2022/11/19 01:11:10;;;;;;;5.72;2.63;;;8.30;99.90;;;;;;4991212;28;20031;-71
2022/11/19 01:13:36;;;;;;;3.45;2.20;;;8.40;99.90;;;;;;4987341;28;20494;-71
2022/11/19 01:16:18;;;;;;;6.50;2.42;;;8.30;99.90;;;;;;4990130;28;20040;-71
2022/11/19 01:18:46;;;;;;;2.97;1.75;;;8.40;99.90;;;;;;4987909;28;20034;-71
2022/11/19 01:21:12;;;;;;;7.80;1.65;;;8.40;99.90;;;;;;4991409;28;20129;-71
2022/11/19 01:23:40;;;;;;;3.22;2.05;;;8.40;99.90;;;;;;4988117;28;20592;-71
2022/11/19 01:26:06;;;;;;;8.32;1.70;;;8.40;99.90;;;;;;4968794;28;20031;-71
2022/11/19 01:28:32;;;;;;;4.32;1.17;;;8.40;99.90;;;;;;4983796;28;20045;-71
2022/11/19 01:30:58;;;;;;;13.73;1.80;;;8.40;99.90;;;;;;4992490;28;20371;-71
2022/11/19 01:33:24;;;;;;;5.10;1.80;;;8.40;99.90;;;;;;4988623;28;20037;-71
2022/11/19 01:35:59;;;;;;;6.72;2.17;;;8.30;99.90;;;;;;4990510;28;20113;-71
2022/11/19 01:38:25;;;;;;;11.05;2.28;;;8.40;99.90;;;;;;4987015;28;20034;-71
2022/11/19 01:40:51;;;;;;;3.95;1.98;;;8.30;99.90;;;;;;4991021;28;20026;-71
2022/11/19 01:43:17;;;;;;;2.45;1.65;;;8.30;99.90;;;;;;4987558;28;20429;-71
2022/11/19 01:45:47;;;;;;;2.13;1.30;;;8.30;99.90;;;;;;4992343;28;20084;-71
2022/11/19 01:48:23;;;;;;;2.85;2.45;;;8.30;99.90;;;;;;4987508;28;20026;-71
2022/11/19 01:51:14;;;;;;;10.60;1.50;;;8.20;99.90;;;;;;4991020;28;20430;-71
2022/11/19 01:53:43;;;;;;;3.45;2.15;;;8.20;99.90;;;;;;4985292;28;20129;-71
2022/11/19 01:56:09;;;;;;;2.97;1.60;;;8.20;99.90;;;;;;4971757;28;20038;-71
2022/11/19 01:58:42;;;;;;;8.82;1.63;;;8.20;99.90;;;;;;4986112;28;20045;-71
2022/11/19 02:01:09;;;;;;;4.20;2.10;;;8.10;99.90;;;;;;4952302;29;20581;-71
2022/11/19 02:03:38;;;;;;;3.60;1.80;;;8.10;99.90;;;;;;4978483;28;20030;-71
2022/11/19 02:06:05;;;;;;;1.95;1.70;;;8.10;99.90;;;;;;4965400;28;20023;-71
2022/11/19 02:08:52;;;;;;;13.00;2.67;;;8.20;99.90;;;;;;4959288;28;20169;-71
2022/11/19 02:12:02;;;;;;;3.55;1.75;;;8.20;99.90;;;;;;4965392;28;20090;-71
2022/11/19 02:15:03;;;;;;;1.50;1.17;;;8.20;99.90;;;;;;4985994;28;20037;-71
2022/11/19 02:18:17;;;;;;;4.63;2.03;;;8.10;99.90;;;;;;4965325;28;20501;-71
2022/11/19 02:21:29;;;;;;;3.30;1.58;;;8.10;99.90;;;;;;4985866;28;20054;-71
2022/11/19 02:24:36;;;;;;;7.20;1.80;;;8.00;99.90;;;;;;4984347;28;20041;-71
2022/11/19 02:27:32;;;;;;;2.08;1.35;;;8.00;99.90;;;;;;4984510;28;20498;-71
2022/11/19 02:30:17;;;;;;;4.78;1.20;;;8.00;99.90;;;;;;4981187;28;20050;-71
2022/11/19 02:32:58;;;;;;;7.15;1.77;;;8.00;99.90;;;;;;4986584;28;20105;-71
2022/11/19 02:35:33;;;;;;;15.23;2.53;;;8.00;99.90;;;;;;4990557;28;20037;-71
2022/11/19 02:38:24;;;;;;;1.85;1.15;;;8.00;99.90;;;;;;4987553;28;20113;-71
2022/11/19 02:41:51;;;;;;;11.40;2.17;;;8.00;99.90;;;;;;5016135;23;20049;-69
2022/11/19 02:47:32;;;;;;;4.50;1.92;;;8.10;99.90;;;;;;4992459;28;20114;-68
2022/11/19 02:50:16;;;;;;;2.10;1.27;;;8.10;99.90;;;;;;4980700;28;20104;-68
2022/11/19 02:52:44;;;;;;;6.43;2.00;;;8.10;99.90;;;;;;4982083;28;20049;-68
2022/11/19 02:55:28;;;;;;;11.65;2.10;;;8.10;99.90;;;;;;4981852;28;20041;-68
2022/11/19 03:04:28;;;;;;;4.80;1.65;;;8.20;99.90;;;;;;4983154;28;20042;-69
2022/11/19 03:06:31;;;;;;;3.22;1.77;;;8.20;99.90;;;;;;4975777;28;20038;-68
2022/11/19 03:08:58;;;;;;;5.00;1.90;;;8.30;99.90;;;;;;4974946;28;20034;-68
2022/11/19 03:11:27;;;;;;;5.97;2.65;;;8.20;99.90;;;;;;4984508;28;20027;-68
2022/11/19 03:17:44;;;;;;;9.25;1.63;;;8.30;99.90;;;;;;4968849;28;20088;-68
2022/11/19 03:20:39;;;;;;;3.47;2.15;;;8.40;99.90;;;;;;4970887;28;20134;-68
2022/11/19 03:23:41;;;;;;;9.23;1.55;;;8.40;99.90;;;;;;4976325;28;20106;-68
2022/11/19 03:26:17;;;;;;;6.60;2.40;;;8.40;99.90;;;;;;4974398;28;20437;-68
2022/11/19 03:28:46;;;;;;;3.72;2.28;;;8.40;99.90;;;;;;4976993;28;20045;-68
2022/11/19 03:31:13;;;;;;;6.97;2.38;;;8.40;99.90;;;;;;4982710;28;20030;-68
2022/11/19 03:33:45;;;;;;;2.70;2.20;;;8.40;99.90;;;;;;4977910;28;20041;-68
2022/11/19 03:36:18;;;;;;;3.47;1.60;;;8.40;99.90;;;;;;4998314;28;20112;-68
2022/11/19 03:38:54;;;;;;;5.13;2.22;;;8.40;99.90;;;;;;4978183;28;20394;-68
2022/11/19 03:41:23;;;;;;;5.13;2.20;;;8.40;99.90;;;;;;4983658;28;20034;-69
2022/11/19 03:44:46;;;;;;;3.70;2.60;;;8.40;99.90;;;;;;4976258;28;20077;-69
2022/11/19 03:47:23;;;;;;;4.35;2.28;;;8.40;99.90;;;;;;4969239;28;20027;-68
2022/11/19 03:50:01;;;;;;;5.65;2.58;;;8.30;99.90;;;;;;4976743;28;20034;-68
2022/11/19 03:52:26;;;;;;;6.15;2.60;;;8.30;99.90;;;;;;4981519;28;20085;-69
2022/11/19 03:54:52;;;;;;;4.63;2.05;;;8.30;99.90;;;;;;4977883;28;20038;-68
2022/11/19 03:57:22;;;;;;;3.72;1.90;;;8.30;99.90;;;;;;4984975;28;20043;-68
2022/11/19 03:59:48;;;;;;;4.13;2.03;;;8.30;99.90;;;;;;4979143;28;20111;-69
2022/11/19 04:02:15;;;;;;;6.22;2.20;;;8.30;99.90;;;;;;4987394;28;20043;-69
2022/11/19 04:04:41;;;;;;;6.40;2.13;;;8.30;99.90;;;;;;4972436;28;20109;-69
2022/11/19 04:07:17;;;;;;;14.98;2.33;;;8.30;99.90;;;;;;4971907;28;20027;-68
2022/11/19 04:09:43;;;;;;;5.57;2.03;;;8.30;99.90;;;;;;4979649;28;20035;-68
2022/11/19 04:12:19;;;;;;;3.78;2.40;;;8.30;99.90;;;;;;4978373;28;20023;-68
2022/11/19 04:14:45;;;;;;;3.42;2.30;;;8.30;99.90;;;;;;4979100;28;20058;-68
2022/11/19 04:17:11;;;;;;;9.00;3.08;;;8.40;99.90;;;;;;4988449;28;20422;-68
2022/11/19 04:19:37;;;;;;;3.28;2.08;;;8.40;99.90;;;;;;4977035;28;20030;-69
2022/11/19 04:22:03;;;;;;;5.30;2.13;;;8.30;99.90;;;;;;4991623;28;20037;-69
2022/11/19 04:24:29;;;;;;;6.57;1.98;;;8.30;99.90;;;;;;4960003;28;20062;-68
2022/11/19 04:26:54;;;;;;;4.93;2.08;;;8.30;99.90;;;;;;4988259;28;20050;-68
2022/11/19 04:29:20;;;;;;;2.60;1.45;;;8.40;99.90;;;;;;4975745;28;20047;-69
2022/11/19 04:31:46;;;;;;;3.47;1.98;;;8.40;99.90;;;;;;4991128;28;20038;-68
2022/11/19 04:34:12;;;;;;;4.22;2.17;;;8.40;99.90;;;;;;4977286;28;20058;-69
2022/11/19 04:36:41;;;;;;;3.47;1.92;;;8.40;99.90;;;;;;4984848;28;20048;-68
2022/11/19 04:39:08;;;;;;;2.97;2.25;;;8.40;99.90;;;;;;4975577;28;20027;-69
2022/11/19 04:41:35;;;;;;;5.47;1.83;;;8.40;99.90;;;;;;4988192;28;20041;-69
2022/11/19 04:44:01;;;;;;;3.00;2.05;;;8.40;99.90;;;;;;4977598;28;20026;-69
2022/11/19 04:46:27;;;;;;;15.57;2.78;;;8.50;99.90;;;;;;4988190;28;20030;-69
2022/11/19 04:48:52;;;;;;;5.55;2.20;;;8.40;99.90;;;;;;4979369;28;20097;-68
2022/11/19 04:51:18;;;;;;;5.72;2.25;;;8.40;99.90;;;;;;5001562;28;20437;-69
2022/11/19 04:53:44;;;;;;;4.50;2.45;;;8.30;99.90;;;;;;4980535;28;20037;-68
2022/11/19 04:56:09;;;;;;;10.98;2.03;;;8.30;99.90;;;;;;5000952;28;20113;-68
2022/11/19 04:58:35;;;;;;;3.28;1.70;;;8.30;99.90;;;;;;4981134;28;20486;-69
2022/11/19 05:01:01;;;;;;;3.55;1.88;;;8.30;99.90;;;;;;4984838;28;20077;-69
2022/11/19 05:03:27;;;;;;;7.20;2.35;;;8.30;99.90;;;;;;4985373;28;20394;-69
2022/11/19 05:05:52;;;;;;;10.07;2.20;;;8.30;99.90;;;;;;4984930;28;20042;-69
2022/11/19 05:08:18;;;;;;;2.47;1.65;;;8.40;99.90;;;;;;4980782;28;20027;-69
2022/11/19 05:10:44;;;;;;;2.75;1.45;;;8.40;99.90;;;;;;4978544;28;20475;-69
2022/11/19 05:13:10;;;;;;;3.05;1.65;;;8.40;99.90;;;;;;4986622;28;20045;-69
2022/11/19 05:15:36;;;;;;;4.03;2.10;;;8.40;99.90;;;;;;4984492;28;20026;-68
2022/11/19 05:18:01;;;;;;;5.82;2.45;;;8.40;99.90;;;;;;4980923;28;20042;-69
2022/11/19 05:20:27;;;;;;;5.45;2.00;;;8.20;99.90;;;;;;4984214;28;20027;-69
2022/11/19 05:22:53;;;;;;;7.45;2.38;;;8.30;99.90;;;;;;4983463;28;20034;-69
2022/11/19 05:25:19;;;;;;;5.22;2.28;;;8.40;99.90;;;;;;4984259;28;20030;-68
2022/11/19 05:27:45;;;;;;;8.45;2.35;;;8.40;99.90;;;;;;4980811;28;20607;-68
2022/11/19 05:30:11;;;;;;;4.65;3.33;;;8.40;99.90;;;;;;4999224;28;20033;-69
2022/11/19 05:32:37;;;;;;;5.50;3.10;;;8.30;99.90;;;;;;4980539;28;20499;-69
2022/11/19 05:35:04;;;;;;;9.65;4.07;;;8.30;99.90;;;;;;4982275;28;20026;-68
2022/11/19 05:37:30;;;;;;;5.47;4.13;;;8.30;99.90;;;;;;4983257;28;20061;-68
2022/11/19 05:39:57;;;;;;;10.88;5.40;;;8.20;99.90;;;;;;4980053;28;20041;-68
2022/11/19 05:42:22;;;;;;;11.75;3.30;;;8.10;99.90;;;;;;4983977;28;20036;-69
2022/11/19 05:44:48;;;;;;;6.53;3.03;;;8.10;99.90;;;;;;4978489;28;20506;-69
2022/11/19 05:47:15;;;;;;;7.18;3.05;;;7.90;99.90;;;;;;4986980;28;20077;-69
2022/11/19 05:49:41;;;;;;;7.70;3.97;;;7.90;99.90;;;;;;4977242;28;20054;-69
2022/11/19 05:52:07;;;;;;;5.05;2.85;;;7.80;99.90;;;;;;4988105;28;20077;-69
2022/11/19 05:54:32;;;;;;;9.95;3.72;;;7.70;99.90;;;;;;4976395;28;20065;-69
2022/11/19 05:56:58;;;;;;;20.52;2.80;;;7.60;99.90;;;;;;4990452;28;20490;-69
2022/11/19 05:59:24;;;;;;;7.68;3.20;;;7.60;99.90;;;;;;4974747;28;20421;-69
2022/11/19 06:01:50;;;;;;;6.15;3.28;;;7.50;99.90;;;;;;4976931;28;20030;-69
2022/11/19 06:04:15;;;;;;;7.13;3.85;;;7.50;99.90;;;;;;4968960;28;20035;-69
2022/11/19 06:06:41;;;;;;;8.30;3.38;;;7.40;99.90;;;;;;4980476;28;20030;-69
2022/11/19 06:09:07;;;;;;;5.32;2.88;;;7.40;99.90;;;;;;4979163;28;20089;-68
2022/11/19 06:11:49;;;;;;;10.50;3.88;;;7.30;99.90;;;;;;4973545;28;20043;-68
2022/11/19 06:14:22;;;;;;;5.88;3.40;;;7.40;99.90;;;;;;4974222;28;20065;-68
2022/11/19 06:16:53;;;;;;;7.25;2.53;;;7.30;99.90;;;;;;4987776;28;20070;-68
2022/11/19 06:19:18;;;;;;;;;;;7.30;99.90;;;;;;4974495;28;20077;-69
2022/11/19 06:21:44;;;;;;;6.65;3.55;;;7.30;99.90;;;;;;4987336;28;19914;-68
2022/11/19 06:24:11;;;;;;;4.80;2.92;;;7.30;99.90;;;;;;4974229;28;20039;-68
2022/11/19 06:26:38;;;;;;;9.48;4.28;;;7.30;99.90;;;;;;4986474;28;20216;-69
2022/11/19 06:29:05;;;;;;;7.55;3.78;;;7.30;99.90;;;;;;4974902;28;20093;-69
2022/11/19 06:31:31;;;;;;;11.10;5.63;;;7.30;99.90;;;;;;4983736;28;20109;-69
2022/11/19 06:33:57;;;;;;;15.57;8.13;;;7.30;99.90;;;;;;4973886;28;20458;-69
2022/11/19 06:36:23;;;;;;;9.43;4.55;;;7.30;99.90;;;;;;4985493;28;20057;-69
2022/11/19 06:38:49;;;;;;;9.38;4.20;;;7.30;99.90;;;;;;4976705;28;20489;-69
2022/11/19 06:41:15;;;;;;;11.18;3.28;;;7.40;99.90;;;;;;4984315;28;20049;-69
2022/11/19 06:43:42;;;;;;;6.03;3.72;;;7.30;99.90;;;;;;4979397;28;20038;-69
2022/11/19 06:46:10;;;;;;;11.80;3.03;;;7.40;99.90;;;;;;4982140;28;20026;-69
2022/11/19 06:48:36;;;;;;;4.78;3.13;;;7.40;99.90;;;;;;4979159;28;20751;-69
2022/11/19 06:51:02;;;;;;;6.20;2.78;;;7.30;99.90;;;;;;4982928;28;20062;-69
2022/11/19 06:53:28;;;;;;;15.05;3.10;;;7.30;99.90;;;;;;4978068;28;20034;-69
2022/11/19 06:56:00;;;;;;;7.45;3.40;;;7.30;99.90;;;;;;4982833;28;20061;-69
2022/11/19 06:58:28;;;;;;;7.22;2.95;;;7.30;99.90;;;;;;4977600;28;20034;-69
2022/11/19 07:00:54;;;;;;;7.57;3.70;;;7.30;99.90;;;;;;4962440;28;20522;-69
2022/11/19 07:03:20;;;;;;;5.05;2.80;;;7.30;99.90;;;;;;4970733;28;20034;-69
2022/11/19 07:05:47;;;;;;;5.93;3.33;;;7.20;99.90;;;;;;4983054;28;20026;-69
2022/11/19 07:08:14;;;;;;;8.38;3.00;;;7.20;99.90;;;;;;4979044;28;20529;-68
2022/11/19 07:10:40;;;;;;;5.72;3.50;;;7.20;99.90;;;;;;4978669;28;20026;-68
2022/11/19 07:13:06;;;;;;;6.50;2.63;;;7.20;99.90;;;;;;4969425;28;20095;-68
2022/11/19 07:15:31;;;;;;;16.30;5.72;;;7.20;99.90;;;;;;4981696;28;20037;-68
2022/11/19 07:17:57;;;;;;;4.97;2.30;;;7.20;99.90;;;;;;4979010;28;20034;-69
2022/11/19 07:20:23;;;;;;;31.55;13.27;;;7.20;99.90;;;;;;4982448;28;20035;-71
2022/11/19 07:22:48;;;;;;;6.28;3.50;;;7.20;99.90;;;;;;4967481;28;20396;-68
2022/11/19 07:25:14;;;;;;;4.65;2.58;;;7.10;99.90;;;;;;4982640;28;20077;-68
2022/11/19 07:27:42;;;;;;;3.58;1.90;;;7.10;99.90;;;;;;4979154;28;20387;-68
2022/11/19 07:30:09;;;;;;;3.45;1.90;;;7.10;99.90;;;;;;4997494;28;20105;-68
2022/11/19 07:32:35;;;;;;;5.57;2.28;;;7.10;99.90;;;;;;4975103;28;20078;-69
2022/11/19 07:35:00;;;;;;;3.97;2.47;;;7.10;99.90;;;;;;5016272;28;20446;-68
2022/11/19 07:37:26;;;;;;;7.75;2.08;;;7.20;99.90;;;;;;4981671;28;20067;-69
2022/11/19 07:39:52;;;;;;;7.30;2.92;;;7.20;99.90;;;;;;4984249;28;20038;-69
2022/11/19 07:45:05;;;;;;;3.83;2.28;;;7.20;99.90;;;;;;4986480;28;20046;-69
2022/11/19 07:47:33;;;;;;;5.97;1.80;;;7.10;99.90;;;;;;4985146;28;20716;-70
2022/11/19 07:49:58;;;;;;;3.05;1.77;;;7.10;99.90;;;;;;4977671;28;20063;-70
2022/11/19 07:52:24;;;;;;;7.57;3.08;;;7.00;99.90;;;;;;4986853;28;20030;-69
2022/11/19 07:54:50;;;;;;;4.03;2.08;;;6.90;99.90;;;;;;4978176;28;20484;-69
2022/11/19 07:57:16;;;;;;;7.20;2.72;;;6.90;99.90;;;;;;4985703;28;20037;-70
2022/11/19 07:59:41;;;;;;;3.22;2.20;;;6.80;99.90;;;;;;4977846;28;20027;-70
2022/11/19 08:02:11;;;;;;;3.83;2.28;;;6.70;99.90;;;;;;5001016;28;20026;-69
2022/11/19 08:04:37;;;;;;;6.30;2.40;;;6.70;99.90;;;;;;4981486;28;20027;-69
2022/11/19 08:07:02;;;;;;;3.55;2.45;;;6.70;99.90;;;;;;4980813;28;20026;-69
2022/11/19 08:09:28;;;;;;;3.95;2.03;;;6.70;99.90;;;;;;4992928;28;21032;-69
2022/11/19 08:11:54;;;;;;;5.30;2.35;;;6.60;99.90;;;;;;4979212;28;20046;-72
2022/11/19 08:14:19;;;;;;;3.38;2.22;;;6.60;99.90;;;;;;4987789;28;20038;-69
2022/11/19 08:19:29;;;;;;;3.25;1.92;;;6.50;99.90;;;;;;4988696;28;20125;-69
2022/11/19 08:21:55;;;;;;;4.38;1.95;;;6.50;99.90;;;;;;4980915;28;20113;-69
2022/11/19 08:24:21;;;;;;;10.60;2.60;;;6.50;99.90;;;;;;4987941;28;20037;-70
2022/11/19 08:26:47;;;;;;;3.75;2.03;;;6.40;99.90;;;;;;4981703;28;20049;-69
2022/11/19 08:29:15;;;;;;;3.08;1.88;;;6.30;99.90;;;;;;4986377;28;20068;-69
2022/11/19 08:31:44;;;;;;;4.78;1.80;;;6.30;99.90;;;;;;4978171;28;20106;-69
2022/11/19 08:34:10;;;;;;;2.53;1.70;;;6.30;99.90;;;;;;4977146;28;20026;-69
2022/11/19 08:36:35;;;;;;;3.45;1.85;;;6.30;99.90;;;;;;4977967;28;20383;-69
2022/11/19 08:39:02;;;;;;;5.68;2.22;;;6.30;99.90;;;;;;4989903;28;20038;-69
2022/11/19 08:44:14;;;;;;;2.85;2.03;;;6.30;99.90;;;;;;4982942;28;20034;-71
2022/11/19 08:46:40;;;;;;;3.05;1.60;;;6.40;99.90;;;;;;4988539;28;20164;-72
2022/11/19 08:49:06;;;;;;;3.40;1.58;;;6.30;99.90;;;;;;4987012;28;20045;-71
2022/11/19 08:51:32;;;;;;;2.60;1.50;;;6.30;99.90;;;;;;4978294;28;20037;-70
2022/11/19 08:53:58;;;;;;;4.47;2.00;;;6.30;99.90;;;;;;4991747;28;20034;-72
2022/11/19 08:56:24;;;;;;;2.28;1.45;;;6.30;99.90;;;;;;4987479;28;20042;-71
2022/11/19 08:58:53;;;;;;;3.05;1.00;;;6.30;99.90;;;;;;4980528;28;20070;-69
2022/11/19 09:01:19;;;;;;;2.67;1.50;;;6.20;99.90;;;;;;4989488;28;20537;-71
2022/11/19 09:03:45;;;;;;;4.20;1.75;;;6.20;99.90;;;;;;4974793;28;20042;-69
2022/11/19 09:06:12;;;;;;;4.50;1.92;;;6.10;99.90;;;;;;5000692;28;20389;-69
2022/11/19 09:08:39;;;;;;;3.53;2.00;;;6.10;99.90;;;;;;4985401;28;20034;-69
2022/11/19 09:11:12;;;;;;;2.47;1.85;;;6.00;99.90;;;;;;4980680;28;20034;-69
2022/11/19 09:13:38;;;;;;;4.15;2.10;;;6.00;99.90;;;;;;4967598;28;20039;-70
2022/11/19 09:16:05;;;;;;;2.50;1.67;;;5.90;99.90;;;;;;4988504;28;20050;-68
2022/11/19 09:18:34;;;;;;;2.72;1.92;;;5.80;99.90;;;;;;4987084;28;20042;-69
2022/11/19 09:21:00;;;;;;;5.32;2.65;;;5.80;99.90;;;;;;4980633;28;20031;-69
2022/11/19 09:23:26;;;;;;;3.00;1.77;;;5.70;99.90;;;;;;4985712;28;20793;-69
2022/11/19 09:26:00;;;;;;;3.28;1.67;;;5.70;99.90;;;;;;4980243;28;20030;-69
2022/11/19 09:28:27;;;;;;;3.85;1.05;;;5.70;99.90;;;;;;4986619;28;20037;-69
2022/11/19 09:31:03;;;;;;;4.40;2.05;;;5.50;99.90;;;;;;4981297;28;20743;-68
2022/11/19 09:33:32;;;;;;;3.42;1.67;;;5.50;99.90;;;;;;4983042;28;20072;-69
2022/11/19 09:35:58;;;;;;;5.70;2.03;;;5.40;99.90;;;;;;4980810;28;20026;-69
2022/11/19 09:38:23;;;;;;;5.53;2.85;;;5.30;99.90;;;;;;5001328;28;20085;-69
2022/11/19 09:40:53;;;;;;;10.63;5.15;;;5.30;99.90;;;;;;4997091;28;20034;-69
2022/11/19 09:43:42;;;;;;;7.13;2.88;;;5.30;99.90;;;;;;4985804;28;20478;-70
2022/11/19 09:46:23;;;;;;;5.05;2.58;;;5.20;99.90;;;;;;4993669;28;20414;-70
2022/11/19 09:48:53;;;;;;;3.00;1.52;;;5.20;99.90;;;;;;5003708;28;20033;-70
2022/11/19 09:51:29;;;;;;;4.80;2.35;;;5.20;99.90;;;;;;4989095;28;20071;-71
2022/11/19 09:54:13;;;;;;;5.78;3.88;;;5.20;99.90;;;;;;5005182;28;20074;-69
2022/11/19 09:56:43;;;;;;;3.17;2.13;;;5.10;99.90;;;;;;4976424;28;20085;-69
2022/11/19 09:59:26;;;;;;;4.90;2.88;;;5.10;99.90;;;;;;4952356;28;20039;-72
2022/11/19 10:01:53;;;;;;;6.22;2.83;;;5.20;99.90;;;;;;4979367;28;20035;-72
2022/11/19 10:04:27;;;;;;;8.75;4.45;;;5.10;99.90;;;;;;4988261;28;20474;-72
2022/11/19 10:07:17;;;;;;;3.83;1.65;;;5.10;99.90;;;;;;4980001;28;20109;-70
2022/11/19 10:09:49;;;;;;;7.60;2.13;;;5.10;99.90;;;;;;4986028;28;20031;-78
2022/11/19 10:12:51;;;;;;;5.43;3.05;;;5.20;99.90;;;;;;4980671;28;20050;-72
2022/11/19 10:15:43;;;;;;;4.45;2.28;;;5.20;99.90;;;;;;4962698;28;20038;-71
2022/11/19 10:18:29;;;;;;;4.72;2.55;;;5.10;99.90;;;;;;4976528;28;20038;-71
2022/11/19 10:21:11;;;;;;;4.43;2.63;;;5.10;99.90;;;;;;4980423;28;20073;-70
2022/11/19 10:24:09;;;;;;;5.65;2.38;;;5.10;99.90;;;;;;5002384;28;20152;-70
2022/11/19 10:26:39;;;;;;;10.65;5.03;;;5.20;99.90;;;;;;4986765;28;20122;-70
2022/11/19 10:29:20;;;;;;;7.28;2.70;;;5.20;99.90;;;;;;4953786;28;20118;-72
2022/11/19 10:31:49;;;;;;;4.55;2.55;;;5.30;99.90;;;;;;4978195;28;20097;-73
2022/11/19 10:34:32;;;;;;;5.13;1.90;;;5.30;99.90;;;;;;5004045;28;20038;-70
2022/11/19 10:37:12;;;;;;;5.60;2.45;;;5.30;99.90;;;;;;4990042;28;20500;-70
2022/11/19 10:39:59;;;;;;;5.60;2.55;;;5.30;99.90;;;;;;4989044;28;20061;-70
2022/11/19 10:42:57;;;;;;;5.82;3.20;;;5.30;99.90;;;;;;4968577;28;20070;-70
2022/11/19 10:45:30;;;;;;;4.68;2.47;;;5.30;99.90;;;;;;4966460;28;20425;-70
2022/11/19 10:48:20;;;;;;;3.90;2.60;;;5.30;99.90;;;;;;4997319;28;20038;-70
2022/11/19 10:50:46;;;;;;;7.53;2.47;;;5.30;99.90;;;;;;4995957;28;20026;-70
2022/11/19 10:53:30;;;;;;;4.47;2.55;;;5.30;99.90;;;;;;4983879;28;20050;-70
2022/11/19 10:56:04;;;;;;;9.05;2.70;;;5.30;99.90;;;;;;4978642;28;20483;-70
2022/11/19 10:58:47;;;;;;;5.75;2.75;;;5.30;99.90;;;;;;4993462;28;20046;-70
2022/11/19 11:01:32;;;;;;;6.10;3.00;;;5.30;99.90;;;;;;4986151;28;20057;-71
2022/11/19 11:04:15;;;;;;;5.45;2.95;;;5.30;99.90;;;;;;4970209;28;20027;-70
2022/11/19 11:07:03;;;;;;;5.07;2.33;;;5.30;99.90;;;;;;4989822;28;20041;-70
2022/11/19 11:09:42;;;;;;;5.32;2.70;;;5.20;99.90;;;;;;4992816;28;20062;-70
2022/11/19 11:15:17;;;;;;;6.75;3.25;;;5.20;99.90;;;;;;4986613;28;20038;-70
2022/11/19 11:17:46;;;;;;;3.58;2.00;;;5.10;99.90;;;;;;4988654;28;20503;-71
2022/11/19 11:20:15;;;;;;;3.80;2.45;;;5.10;99.90;;;;;;5001054;28;20037;-71
2022/11/19 11:22:47;;;;;;;5.43;3.65;;;5.00;99.90;;;;;;4993630;28;20537;-71
2022/11/19 11:25:31;;;;;;;;;;;5.00;99.90;;;;;;5009617;28;20035;-71
2022/11/19 11:28:14;;;;;;;3.60;2.50;;;5.00;99.90;;;;;;4981763;28;19910;-71
2022/11/19 11:31:04;;;;;;;6.05;2.80;;;5.00;99.90;;;;;;5005178;28;20078;-72
2022/11/19 11:33:41;;;;;;;4.87;2.57;;;4.90;99.90;;;;;;4983208;28;20157;-67
2022/11/19 11:36:21;;;;;;;3.53;1.92;;;4.90;99.90;;;;;;4985507;28;20035;-73
2022/11/19 11:38:50;;;;;;;3.25;1.77;;;4.90;99.90;;;;;;4996441;28;20070;-68
2022/11/19 11:41:20;;;;;;;5.28;2.47;;;4.90;99.90;;;;;;5002634;28;20030;-68
2022/11/19 11:44:01;;;;;;;4.68;2.35;;;4.90;99.90;;;;;;4995173;28;20041;-68
2022/11/19 11:46:52;;;;;;;3.45;2.15;;;4.90;99.90;;;;;;4989329;28;20427;-68
2022/11/19 11:49:31;;;;;;;3.47;2.17;;;4.90;99.90;;;;;;4975588;28;20039;-70
2022/11/19 11:52:03;;;;;;;4.85;2.10;;;4.80;99.90;;;;;;4960202;28;20129;-68
2022/11/19 11:54:30;;;;;;;4.15;2.17;;;4.80;99.90;;;;;;4992952;28;20046;-69
2022/11/19 11:57:19;;;;;;;4.55;2.30;;;4.80;99.90;;;;;;4994916;28;20509;-69
2022/11/19 11:59:45;;;;;;;4.85;2.60;;;4.80;99.90;;;;;;4990630;28;20049;-69
2022/11/19 12:02:25;;;;;;;6.05;2.60;;;4.80;99.90;;;;;;4979453;28;20034;-70
2022/11/19 12:04:54;;;;;;;2.63;2.03;;;4.80;99.90;;;;;;4972352;28;20031;-69
2022/11/19 12:07:51;;;;;;;4.97;2.50;;;4.70;99.90;;;;;;4992462;28;20120;-69
2022/11/19 12:10:51;;;;;;;4.53;2.38;;;4.70;99.90;;;;;;4974707;28;20509;-68
2022/11/19 12:13:50;;;;;;;5.38;3.05;;;4.60;99.90;;;;;;4954410;28;20054;-68
2022/11/19 12:16:48;;;;;;;2.63;1.38;;;4.70;99.90;;;;;;4990996;28;20059;-69
2022/11/19 12:19:31;;;;;;;6.13;2.40;;;4.70;99.90;;;;;;4985956;28;20030;-70
2022/11/19 12:22:09;;;;;;;4.07;1.88;;;4.60;99.90;;;;;;4983267;28;20039;-69
2022/11/19 12:25:22;;;;;;;4.38;1.45;;;4.60;99.90;;;;;;4992024;28;20027;-69
2022/11/19 12:28:09;;;;;;;3.35;2.35;;;4.60;99.90;;;;;;4972128;28;20542;-69
2022/11/19 12:31:34;;;;;;;4.85;3.17;;;4.60;99.90;;;;;;4973875;28;20148;-70
2022/11/19 12:34:15;;;;;;;7.65;2.78;;;4.60;99.90;;;;;;4984370;28;20567;-69
2022/11/19 12:36:57;;;;;;;5.78;3.40;;;4.60;99.90;;;;;;4988082;28;20043;-70
2022/11/19 12:39:35;;;;;;;3.42;1.92;;;4.60;99.90;;;;;;4984779;28;20049;-69
2022/11/19 12:42:41;;;;;;;5.38;2.58;;;4.60;99.90;;;;;;5003280;28;20034;-70
2022/11/19 12:45:40;;;;;;;2.90;1.73;;;4.60;99.90;;;;;;4977867;28;20038;-75
2022/11/19 12:48:19;;;;;;;5.15;2.15;;;4.70;99.90;;;;;;4983555;28;20031;-70
2022/11/19 12:50:53;;;;;;;4.75;2.55;;;4.70;99.90;;;;;;4991415;28;20039;-71
2022/11/19 12:53:39;;;;;;;6.00;2.45;;;4.70;99.90;;;;;;4974033;28;20114;-70
2022/11/19 12:56:22;;;;;;;5.57;3.03;;;4.80;99.90;;;;;;4980869;28;20038;-70
2022/11/19 12:59:15;;;;;;;2.95;1.80;;;4.80;99.90;;;;;;4976657;28;20499;-70
2022/11/19 13:01:46;;;;;;;4.30;2.95;;;4.80;99.90;;;;;;4975400;28;20035;-70
2022/11/19 13:04:42;;;;;;;4.13;2.92;;;4.90;99.90;;;;;;4982026;28;20027;-70
2022/11/19 13:07:25;;;;;;;6.85;2.42;;;4.90;99.90;;;;;;4986313;28;20431;-68
2022/11/19 13:10:01;;;;;;;5.25;2.30;;;4.90;99.90;;;;;;5005288;28;20056;-68
2022/11/19 13:12:35;;;;;;;8.25;2.17;;;4.90;99.90;;;;;;4991216;28;20077;-69
2022/11/19 13:15:13;;;;;;;6.32;3.65;;;4.80;99.90;;;;;;5005017;28;20454;-70
2022/11/19 13:17:46;;;;;;;6.38;2.67;;;4.70;99.90;;;;;;4976196;28;20451;-68
2022/11/19 13:20:49;;;;;;;4.75;2.50;;;4.70;99.90;;;;;;4970050;28;20058;-68
2022/11/19 13:23:38;;;;;;;4.43;2.20;;;4.80;99.90;;;;;;4981691;28;20039;-70
2022/11/19 13:26:14;;;;;;;3.97;2.22;;;4.90;99.90;;;;;;4991017;28;20125;-68
2022/11/19 13:28:53;;;;;;;5.43;2.97;;;4.90;99.90;;;;;;4996781;28;20038;-69
2022/11/19 13:31:47;;;;;;;5.32;2.80;;;5.00;99.90;;;;;;4985768;28;20067;-68
2022/11/19 13:34:32;;;;;;;4.60;2.38;;;5.00;99.90;;;;;;4973099;28;20050;-69
2022/11/19 13:37:13;;;;;;;2.83;1.58;;;5.00;99.90;;;;;;5005636;28;20030;-68
2022/11/19 13:39:58;;;;;;;6.32;2.53;;;4.90;99.90;;;;;;4966736;28;20546;-68
2022/11/19 13:45:16;;;;;;;2.60;1.65;;;4.90;99.90;;;;;;4986022;28;20053;-68
2022/11/19 13:47:58;;;;;;;3.05;2.13;;;4.90;99.90;;;;;;4983237;28;20440;-69
2022/11/19 13:50:49;;;;;;;9.50;3.13;;;4.90;99.90;;;;;;4998132;28;20379;-70
2022/11/19 13:53:29;;;;;;;8.85;1.95;;;4.90;99.90;;;;;;4989166;28;20396;-70
2022/11/19 13:55:56;;;;;;;5.63;2.60;;;4.80;99.90;;;;;;4963383;28;20034;-70
2022/11/19 13:58:34;;;;;;;7.45;2.50;;;4.80;99.90;;;;;;4967933;28;20122;-70
2022/11/19 14:01:40;;;;;;;2.95;2.13;;;4.80;99.90;;;;;;4995792;28;20035;-70